createdAt,value
2016-11-25T00:00:08.710Z,1016.61
2016-11-25T00:00:47.496Z,1016.6
2016-11-25T00:01:26.288Z,1016.59
2016-11-25T00:02:05.084Z,1016.62
2016-11-25T00:02:43.870Z,1016.59
2016-11-25T00:03:22.653Z,1016.58
2016-11-25T00:04:01.463Z,1016.57
2016-11-25T00:04:40.678Z,1016.57
2016-11-25T00:05:19.465Z,1016.55
2016-11-25T00:05:58.284Z,1016.47
2016-11-25T00:06:37.076Z,1016.5
2016-11-25T00:07:15.865Z,1016.45
2016-11-25T00:07:54.651Z,1016.47
2016-11-25T00:08:33.437Z,1016.45
2016-11-25T00:09:12.226Z,1016.46
2016-11-25T00:09:51.015Z,1016.37
2016-11-25T00:10:29.803Z,1016.34
2016-11-25T00:11:08.589Z,1016.35
2016-11-25T00:11:47.374Z,1016.36
2016-11-25T00:12:26.162Z,1016.33
2016-11-25T00:13:04.947Z,1016.33
2016-11-25T00:13:43.766Z,1016.32
2016-11-25T00:14:22.550Z,1016.27
2016-11-25T00:15:01.333Z,1016.26
2016-11-25T00:15:40.120Z,1016.26
2016-11-25T00:16:18.908Z,1016.21
2016-11-25T00:16:57.693Z,1016.23
2016-11-25T00:17:36.481Z,1016.21
2016-11-25T00:18:15.272Z,1016.24
2016-11-25T00:18:54.068Z,1016.22
2016-11-25T00:19:32.852Z,1016.24
2016-11-25T00:20:11.647Z,1016.24
2016-11-25T00:20:50.436Z,1016.22
2016-11-25T00:21:29.220Z,1016.22
2016-11-25T00:22:08.004Z,1016.19
2016-11-25T00:22:46.788Z,1016.19
2016-11-25T00:23:25.571Z,1016.17
2016-11-25T00:24:04.354Z,1016.16
2016-11-25T00:24:43.142Z,1016.16
2016-11-25T00:25:21.925Z,1016.15
2016-11-25T00:26:00.720Z,1016.19
2016-11-25T00:26:39.503Z,1016.11
2016-11-25T00:27:18.289Z,1016.15
2016-11-25T00:27:57.069Z,1016.16
2016-11-25T00:28:35.859Z,1016.14
2016-11-25T00:29:14.676Z,1016.16
2016-11-25T00:29:53.460Z,1016.21
2016-11-25T00:30:32.248Z,1016.2
2016-11-25T00:31:11.037Z,1016.12
2016-11-25T00:31:50.174Z,1016.1
2016-11-25T00:32:28.959Z,1016.09
2016-11-25T00:33:07.754Z,1016.02
2016-11-25T00:33:46.536Z,1016.01
2016-11-25T00:34:25.327Z,1016.01
2016-11-25T00:35:04.114Z,1015.99
2016-11-25T00:35:42.896Z,1016.04
2016-11-25T00:36:21.679Z,1016.05
2016-11-25T00:37:00.472Z,1016.08
2016-11-25T00:37:39.249Z,1016.01
2016-11-25T00:38:18.044Z,1016.05
2016-11-25T00:38:56.834Z,1016.04
2016-11-25T00:39:35.619Z,1016.01
2016-11-25T00:40:14.405Z,1016
2016-11-25T00:40:53.199Z,1016.03
2016-11-25T00:41:31.986Z,1016.01
2016-11-25T00:42:10.773Z,1015.96
2016-11-25T00:42:49.558Z,1015.94
2016-11-25T00:43:28.341Z,1015.93
2016-11-25T00:44:07.127Z,1015.94
2016-11-25T00:44:45.909Z,1015.91
2016-11-25T00:45:24.694Z,1015.97
2016-11-25T00:46:03.485Z,1015.93
2016-11-25T00:46:42.272Z,1015.93
2016-11-25T00:47:21.063Z,1015.9
2016-11-25T00:47:59.861Z,1015.91
2016-11-25T00:48:38.658Z,1015.89
2016-11-25T00:49:17.447Z,1015.87
2016-11-25T00:49:56.239Z,1015.86
2016-11-25T00:50:35.060Z,1015.82
2016-11-25T00:51:13.850Z,1015.84
2016-11-25T00:51:52.642Z,1015.9
2016-11-25T00:52:31.437Z,1015.85
2016-11-25T00:53:10.256Z,1015.9
2016-11-25T00:53:49.047Z,1015.89
2016-11-25T00:54:28.192Z,1015.93
2016-11-25T00:55:06.979Z,1016
2016-11-25T00:55:45.765Z,1016.01
2016-11-25T00:56:24.551Z,1016
2016-11-25T00:57:03.341Z,1016.06
2016-11-25T00:57:42.143Z,1016.07
2016-11-25T00:58:20.932Z,1016.1
2016-11-25T00:58:59.721Z,1016.16
2016-11-25T00:59:38.505Z,1016.17
2016-11-25T01:00:17.296Z,1016.17
2016-11-25T01:00:56.084Z,1016.14
2016-11-25T01:01:34.871Z,1016.13
2016-11-25T01:02:13.657Z,1016.17
2016-11-25T01:02:52.446Z,1016.18
2016-11-25T01:03:31.231Z,1016.21
2016-11-25T01:04:10.020Z,1016.22
2016-11-25T01:04:48.815Z,1016.22
2016-11-25T01:05:27.602Z,1016.24
2016-11-25T01:06:06.387Z,1016.23
2016-11-25T01:06:45.177Z,1016.25
2016-11-25T01:07:24.003Z,1016.2
2016-11-25T01:08:02.824Z,1016.2
2016-11-25T01:08:41.630Z,1016.17
2016-11-25T01:09:20.421Z,1016.18
2016-11-25T01:09:59.561Z,1016.18
2016-11-25T01:10:38.349Z,1016.19
2016-11-25T01:11:17.134Z,1016.21
2016-11-25T01:11:55.919Z,1016.21
2016-11-25T01:12:34.708Z,1016.24
2016-11-25T01:13:13.497Z,1016.27
2016-11-25T01:13:52.287Z,1016.29
2016-11-25T01:14:31.082Z,1016.27
2016-11-25T01:15:09.876Z,1016.29
2016-11-25T01:15:48.689Z,1016.27
2016-11-25T01:16:27.824Z,1016.27
2016-11-25T01:17:06.611Z,1016.23
2016-11-25T01:17:45.395Z,1016.26
2016-11-25T01:18:24.181Z,1016.26
2016-11-25T01:19:02.971Z,1016.24
2016-11-25T01:19:41.763Z,1016.22
2016-11-25T01:20:20.582Z,1016.27
2016-11-25T01:20:59.369Z,1016.27
2016-11-25T01:21:38.153Z,1016.29
2016-11-25T01:22:16.946Z,1016.31
2016-11-25T01:22:55.740Z,1016.27
2016-11-25T01:23:34.527Z,1016.31
2016-11-25T01:24:13.314Z,1016.31
2016-11-25T01:24:52.098Z,1016.29
2016-11-25T01:25:30.881Z,1016.27
2016-11-25T01:26:09.696Z,1016.31
2016-11-25T01:26:48.514Z,1016.33
2016-11-25T01:27:27.304Z,1016.37
2016-11-25T01:28:06.094Z,1016.38
2016-11-25T01:28:44.882Z,1016.42
2016-11-25T01:29:23.700Z,1016.41
2016-11-25T01:30:02.479Z,1016.42
2016-11-25T01:30:41.267Z,1016.39
2016-11-25T01:31:20.066Z,1016.36
2016-11-25T01:31:58.849Z,1016.39
2016-11-25T01:32:37.635Z,1016.39
2016-11-25T01:33:16.419Z,1016.39
2016-11-25T01:33:55.205Z,1016.38
2016-11-25T01:34:33.990Z,1016.39
2016-11-25T01:35:12.771Z,1016.37
2016-11-25T01:35:51.556Z,1016.36
2016-11-25T01:36:30.380Z,1016.36
2016-11-25T01:37:09.163Z,1016.35
2016-11-25T01:37:47.956Z,1016.3
2016-11-25T01:38:26.739Z,1016.32
2016-11-25T01:39:05.524Z,1016.31
2016-11-25T01:39:44.317Z,1016.27
2016-11-25T01:40:23.112Z,1016.26
2016-11-25T01:41:01.898Z,1016.32
2016-11-25T01:41:40.683Z,1016.26
2016-11-25T01:42:19.467Z,1016.24
2016-11-25T01:42:58.602Z,1016.3
2016-11-25T01:43:37.386Z,1016.36
2016-11-25T01:44:16.203Z,1016.29
2016-11-25T01:44:54.988Z,1016.31
2016-11-25T01:45:33.773Z,1016.34
2016-11-25T01:46:12.565Z,1016.3
2016-11-25T01:46:51.358Z,1016.26
2016-11-25T01:47:30.145Z,1016.29
2016-11-25T01:48:08.961Z,1016.25
2016-11-25T01:48:47.744Z,1016.22
2016-11-25T01:49:26.526Z,1016.22
2016-11-25T01:50:05.308Z,1016.19
2016-11-25T01:50:44.091Z,1016.13
2016-11-25T01:51:22.878Z,1016.12
2016-11-25T01:52:01.661Z,1016.06
2016-11-25T01:52:40.453Z,1016.02
2016-11-25T01:53:19.270Z,1016.02
2016-11-25T01:53:58.064Z,1016.01
2016-11-25T01:54:36.854Z,1016.04
2016-11-25T01:55:15.674Z,1016.09
2016-11-25T01:55:54.457Z,1016.12
2016-11-25T01:56:33.253Z,1016.17
2016-11-25T01:57:12.037Z,1016.19
2016-11-25T01:57:50.832Z,1016.17
2016-11-25T01:58:29.626Z,1016.18
2016-11-25T01:59:08.416Z,1016.14
2016-11-25T01:59:47.202Z,1016.16
2016-11-25T02:00:25.988Z,1016.14
2016-11-25T02:01:04.780Z,1016.15
2016-11-25T02:01:43.570Z,1016.18
2016-11-25T02:02:22.367Z,1016.13
2016-11-25T02:03:01.148Z,1016.12
2016-11-25T02:03:39.932Z,1016.14
2016-11-25T02:04:18.721Z,1016.12
2016-11-25T02:04:57.505Z,1016.12
2016-11-25T02:05:36.287Z,1016.15
2016-11-25T02:06:15.081Z,1016.15
2016-11-25T02:06:53.868Z,1016.15
2016-11-25T02:07:32.659Z,1016.16
2016-11-25T02:08:11.444Z,1016.16
2016-11-25T02:08:50.257Z,1016.18
2016-11-25T02:09:29.044Z,1016.15
2016-11-25T02:10:07.832Z,1016.14
2016-11-25T02:10:46.620Z,1016.17
2016-11-25T02:11:25.439Z,1016.13
2016-11-25T02:12:04.256Z,1016.12
2016-11-25T02:12:43.041Z,1016.1
2016-11-25T02:13:21.823Z,1016.11
2016-11-25T02:14:00.611Z,1016.07
2016-11-25T02:14:39.395Z,1016.1
2016-11-25T02:15:18.184Z,1016.11
2016-11-25T02:15:56.994Z,1016.13
2016-11-25T02:16:35.785Z,1016.13
2016-11-25T02:17:14.589Z,1016.1
2016-11-25T02:17:53.380Z,1016.05
2016-11-25T02:18:32.526Z,1016.06
2016-11-25T02:19:11.309Z,1016.01
2016-11-25T02:19:50.090Z,1016.03
2016-11-25T02:20:28.887Z,1016.05
2016-11-25T02:21:07.672Z,1016.04
2016-11-25T02:21:46.458Z,1016.02
2016-11-25T02:22:25.252Z,1016.03
2016-11-25T02:23:04.049Z,1016.05
2016-11-25T02:23:43.190Z,1016.07
2016-11-25T02:24:21.977Z,1016.09
2016-11-25T02:25:00.782Z,1016.08
2016-11-25T02:25:39.566Z,1016.06
2016-11-25T02:26:18.388Z,1016.07
2016-11-25T02:26:57.176Z,1016.03
2016-11-25T02:27:35.965Z,1016.02
2016-11-25T02:28:14.751Z,1015.98
2016-11-25T02:28:53.537Z,1015.96
2016-11-25T02:29:32.324Z,1015.97
2016-11-25T02:30:11.143Z,1015.94
2016-11-25T02:30:49.930Z,1015.94
2016-11-25T02:31:28.723Z,1015.91
2016-11-25T02:32:07.509Z,1015.93
2016-11-25T02:32:46.295Z,1015.92
2016-11-25T02:33:25.078Z,1015.94
2016-11-25T02:34:03.865Z,1015.95
2016-11-25T02:34:42.664Z,1015.91
2016-11-25T02:35:21.451Z,1015.89
2016-11-25T02:36:00.245Z,1015.87
2016-11-25T02:36:39.032Z,1015.88
2016-11-25T02:37:17.821Z,1015.9
2016-11-25T02:37:56.613Z,1015.93
2016-11-25T02:38:35.398Z,1015.91
2016-11-25T02:39:14.190Z,1015.94
2016-11-25T02:39:52.981Z,1015.95
2016-11-25T02:40:31.766Z,1015.98
2016-11-25T02:41:10.559Z,1016.05
2016-11-25T02:41:49.355Z,1016.01
2016-11-25T02:42:28.140Z,1015.97
2016-11-25T02:43:06.928Z,1015.99
2016-11-25T02:43:45.719Z,1015.99
2016-11-25T02:44:24.509Z,1016.03
2016-11-25T02:45:03.299Z,1015.98
2016-11-25T02:45:42.100Z,1015.96
2016-11-25T02:46:20.888Z,1016
2016-11-25T02:46:59.705Z,1015.95
2016-11-25T02:47:38.492Z,1016
2016-11-25T02:48:17.626Z,1016.01
2016-11-25T02:48:56.410Z,1016
2016-11-25T02:49:35.198Z,1016
2016-11-25T02:50:13.992Z,1016.04
2016-11-25T02:50:52.776Z,1016.04
2016-11-25T02:51:31.567Z,1016.02
2016-11-25T02:52:10.351Z,1015.98
2016-11-25T02:52:49.137Z,1016
2016-11-25T02:53:27.928Z,1015.99
2016-11-25T02:54:06.716Z,1016.01
2016-11-25T02:54:45.502Z,1015.98
2016-11-25T02:55:24.290Z,1015.99
2016-11-25T02:56:03.085Z,1016
2016-11-25T02:56:41.871Z,1016.02
2016-11-25T02:57:20.672Z,1016.01
2016-11-25T02:57:59.464Z,1016.02
2016-11-25T02:58:38.253Z,1016
2016-11-25T02:59:17.041Z,1016.02
2016-11-25T02:59:55.833Z,1016
2016-11-25T03:00:34.649Z,1015.96
2016-11-25T03:01:13.437Z,1015.96
2016-11-25T03:01:52.219Z,1015.95
2016-11-25T03:02:31.003Z,1015.91
2016-11-25T03:03:09.791Z,1015.93
2016-11-25T03:03:48.586Z,1015.88
2016-11-25T03:04:27.369Z,1015.91
2016-11-25T03:05:06.156Z,1015.92
2016-11-25T03:05:44.947Z,1015.94
2016-11-25T03:06:23.741Z,1015.91
2016-11-25T03:07:02.525Z,1015.92
2016-11-25T03:07:41.311Z,1015.9
2016-11-25T03:08:20.106Z,1015.87
2016-11-25T03:08:58.893Z,1015.88
2016-11-25T03:09:37.679Z,1015.87
2016-11-25T03:10:16.466Z,1015.94
2016-11-25T03:10:55.252Z,1015.93
2016-11-25T03:11:34.036Z,1016
2016-11-25T03:12:12.818Z,1015.99
2016-11-25T03:12:51.606Z,1015.96
2016-11-25T03:13:30.390Z,1015.91
2016-11-25T03:14:09.185Z,1015.95
2016-11-25T03:14:47.972Z,1015.94
2016-11-25T03:15:26.755Z,1015.97
2016-11-25T03:16:05.541Z,1016.01
2016-11-25T03:16:44.324Z,1016.04
2016-11-25T03:17:23.141Z,1015.99
2016-11-25T03:18:01.927Z,1016.07
2016-11-25T03:18:40.716Z,1016.07
2016-11-25T03:19:19.508Z,1016.03
2016-11-25T03:19:58.295Z,1016.01
2016-11-25T03:20:37.080Z,1016
2016-11-25T03:21:15.871Z,1016.02
2016-11-25T03:21:54.653Z,1016.01
2016-11-25T03:22:33.442Z,1016.03
2016-11-25T03:23:12.231Z,1016.03
2016-11-25T03:23:51.016Z,1016.06
2016-11-25T03:24:29.801Z,1016.08
2016-11-25T03:25:08.615Z,1016.07
2016-11-25T03:25:47.401Z,1016.11
2016-11-25T03:26:26.188Z,1016.12
2016-11-25T03:27:04.973Z,1016.05
2016-11-25T03:27:43.757Z,1016.05
2016-11-25T03:28:22.544Z,1016.06
2016-11-25T03:29:01.329Z,1016.05
2016-11-25T03:29:40.118Z,1016.05
2016-11-25T03:30:18.909Z,1016.05
2016-11-25T03:30:57.697Z,1016.04
2016-11-25T03:31:36.483Z,1016.03
2016-11-25T03:32:15.270Z,1016.03
2016-11-25T03:32:54.051Z,1016.01
2016-11-25T03:33:32.836Z,1016
2016-11-25T03:34:11.619Z,1016.02
2016-11-25T03:34:50.403Z,1016.05
2016-11-25T03:35:29.189Z,1016.04
2016-11-25T03:36:07.976Z,1016.09
2016-11-25T03:36:46.769Z,1016.1
2016-11-25T03:37:25.559Z,1016.1
2016-11-25T03:38:04.345Z,1016.09
2016-11-25T03:38:43.127Z,1016.13
2016-11-25T03:39:21.914Z,1016.14
2016-11-25T03:40:00.701Z,1016.12
2016-11-25T03:40:39.495Z,1016.13
2016-11-25T03:41:18.286Z,1016.15
2016-11-25T03:41:57.101Z,1016.15
2016-11-25T03:42:35.949Z,1016.13
2016-11-25T03:43:14.742Z,1016.15
2016-11-25T03:43:53.877Z,1016.12
2016-11-25T03:44:32.661Z,1016.13
2016-11-25T03:45:11.453Z,1016.14
2016-11-25T03:45:50.243Z,1016.11
2016-11-25T03:46:29.028Z,1016.16
2016-11-25T03:47:07.813Z,1016.14
2016-11-25T03:47:46.632Z,1016.19
2016-11-25T03:48:25.414Z,1016.14
2016-11-25T03:49:04.196Z,1016.13
2016-11-25T03:49:42.980Z,1016.12
2016-11-25T03:50:21.766Z,1016.04
2016-11-25T03:51:00.578Z,1016.05
2016-11-25T03:51:39.370Z,1016.02
2016-11-25T03:52:18.157Z,1016.05
2016-11-25T03:52:56.942Z,1016.06
2016-11-25T03:53:35.731Z,1016.06
2016-11-25T03:54:14.519Z,1016.09
2016-11-25T03:54:53.305Z,1016.14
2016-11-25T03:55:32.089Z,1016.11
2016-11-25T03:56:10.879Z,1016.15
2016-11-25T03:56:49.671Z,1016.14
2016-11-25T03:57:28.460Z,1016.15
2016-11-25T03:58:07.245Z,1016.11
2016-11-25T03:58:46.030Z,1016.18
2016-11-25T03:59:24.831Z,1016.13
2016-11-25T04:00:03.617Z,1016.18
2016-11-25T04:00:42.404Z,1016.17
2016-11-25T04:01:21.193Z,1016.16
2016-11-25T04:01:59.974Z,1016.16
2016-11-25T04:02:38.765Z,1016.16
2016-11-25T04:03:17.592Z,1016.16
2016-11-25T04:03:56.383Z,1016.17
2016-11-25T04:04:35.171Z,1016.19
2016-11-25T04:05:13.959Z,1016.21
2016-11-25T04:05:52.746Z,1016.18
2016-11-25T04:06:31.532Z,1016.19
2016-11-25T04:07:10.314Z,1016.19
2016-11-25T04:07:49.101Z,1016.19
2016-11-25T04:08:27.889Z,1016.21
2016-11-25T04:09:06.688Z,1016.16
2016-11-25T04:09:45.474Z,1016.2
2016-11-25T04:10:24.264Z,1016.18
2016-11-25T04:11:03.043Z,1016.17
2016-11-25T04:11:41.828Z,1016.13
2016-11-25T04:12:20.644Z,1016.16
2016-11-25T04:12:59.433Z,1016.13
2016-11-25T04:13:38.223Z,1016.16
2016-11-25T04:14:17.036Z,1016.15
2016-11-25T04:14:55.828Z,1016.16
2016-11-25T04:15:34.614Z,1016.13
2016-11-25T04:16:13.403Z,1016.16
2016-11-25T04:16:52.188Z,1016.12
2016-11-25T04:17:30.972Z,1016.07
2016-11-25T04:18:09.761Z,1016.02
2016-11-25T04:18:48.546Z,1015.99
2016-11-25T04:19:27.340Z,1015.92
2016-11-25T04:20:06.122Z,1015.95
2016-11-25T04:20:44.909Z,1015.88
2016-11-25T04:21:23.701Z,1015.91
2016-11-25T04:22:02.484Z,1015.82
2016-11-25T04:22:41.307Z,1015.85
2016-11-25T04:23:20.100Z,1015.79
2016-11-25T04:23:58.887Z,1015.77
2016-11-25T04:24:37.672Z,1015.8
2016-11-25T04:25:16.462Z,1015.78
2016-11-25T04:25:55.245Z,1015.78
2016-11-25T04:26:34.035Z,1015.76
2016-11-25T04:27:12.824Z,1015.73
2016-11-25T04:27:51.618Z,1015.72
2016-11-25T04:28:30.409Z,1015.72
2016-11-25T04:29:09.198Z,1015.76
2016-11-25T04:29:47.986Z,1015.7
2016-11-25T04:30:26.773Z,1015.72
2016-11-25T04:31:05.571Z,1015.76
2016-11-25T04:31:44.357Z,1015.77
2016-11-25T04:32:23.143Z,1015.73
2016-11-25T04:33:01.932Z,1015.8
2016-11-25T04:33:40.718Z,1015.82
2016-11-25T04:34:19.540Z,1015.83
2016-11-25T04:34:58.329Z,1015.83
2016-11-25T04:35:37.464Z,1015.82
2016-11-25T04:36:16.255Z,1015.79
2016-11-25T04:36:55.048Z,1015.77
2016-11-25T04:37:33.832Z,1015.8
2016-11-25T04:38:12.621Z,1015.81
2016-11-25T04:38:51.412Z,1015.82
2016-11-25T04:39:30.205Z,1015.79
2016-11-25T04:40:08.990Z,1015.8
2016-11-25T04:40:47.780Z,1015.75
2016-11-25T04:41:26.567Z,1015.71
2016-11-25T04:42:05.362Z,1015.69
2016-11-25T04:42:44.150Z,1015.69
2016-11-25T04:43:22.935Z,1015.67
2016-11-25T04:44:01.720Z,1015.63
2016-11-25T04:44:40.507Z,1015.63
2016-11-25T04:45:19.296Z,1015.64
2016-11-25T04:45:58.082Z,1015.65
2016-11-25T04:46:36.868Z,1015.63
2016-11-25T04:47:15.689Z,1015.59
2016-11-25T04:47:54.477Z,1015.6
2016-11-25T04:48:33.263Z,1015.58
2016-11-25T04:49:12.050Z,1015.57
2016-11-25T04:49:50.861Z,1015.54
2016-11-25T04:50:29.648Z,1015.59
2016-11-25T04:51:08.430Z,1015.58
2016-11-25T04:51:47.217Z,1015.6
2016-11-25T04:52:26.006Z,1015.6
2016-11-25T04:53:04.793Z,1015.65
2016-11-25T04:53:43.581Z,1015.68
2016-11-25T04:54:22.403Z,1015.67
2016-11-25T04:55:01.224Z,1015.68
2016-11-25T04:55:40.010Z,1015.64
2016-11-25T04:56:18.796Z,1015.62
2016-11-25T04:56:57.583Z,1015.64
2016-11-25T04:57:36.367Z,1015.59
2016-11-25T04:58:15.182Z,1015.59
2016-11-25T04:58:53.965Z,1015.61
2016-11-25T04:59:33.109Z,1015.56
2016-11-25T05:00:11.895Z,1015.59
2016-11-25T05:00:50.715Z,1015.62
2016-11-25T05:01:29.498Z,1015.63
2016-11-25T05:02:08.280Z,1015.59
2016-11-25T05:02:47.063Z,1015.61
2016-11-25T05:03:25.851Z,1015.65
2016-11-25T05:04:04.634Z,1015.63
2016-11-25T05:04:43.432Z,1015.69
2016-11-25T05:05:22.250Z,1015.66
2016-11-25T05:06:01.071Z,1015.71
2016-11-25T05:06:39.861Z,1015.69
2016-11-25T05:07:18.648Z,1015.69
2016-11-25T05:07:57.433Z,1015.73
2016-11-25T05:08:36.219Z,1015.7
2016-11-25T05:09:15.006Z,1015.72
2016-11-25T05:09:53.789Z,1015.72
2016-11-25T05:10:32.575Z,1015.74
2016-11-25T05:11:11.367Z,1015.78
2016-11-25T05:11:50.162Z,1015.8
2016-11-25T05:12:28.945Z,1015.85
2016-11-25T05:13:07.734Z,1015.84
2016-11-25T05:13:46.520Z,1015.86
2016-11-25T05:14:25.308Z,1015.87
2016-11-25T05:15:04.105Z,1015.91
2016-11-25T05:15:42.894Z,1015.87
2016-11-25T05:16:21.682Z,1015.86
2016-11-25T05:17:00.501Z,1015.91
2016-11-25T05:17:39.283Z,1015.88
2016-11-25T05:18:18.068Z,1015.83
2016-11-25T05:18:56.854Z,1015.85
2016-11-25T05:19:35.638Z,1015.8
2016-11-25T05:20:14.425Z,1015.79
2016-11-25T05:20:53.213Z,1015.79
2016-11-25T05:21:31.997Z,1015.81
2016-11-25T05:22:10.779Z,1015.83
2016-11-25T05:22:49.563Z,1015.86
2016-11-25T05:23:28.353Z,1015.9
2016-11-25T05:24:07.139Z,1015.88
2016-11-25T05:24:45.922Z,1015.88
2016-11-25T05:25:24.739Z,1015.93
2016-11-25T05:26:03.528Z,1015.98
2016-11-25T05:26:42.324Z,1015.91
2016-11-25T05:27:21.128Z,1015.88
2016-11-25T05:27:59.915Z,1015.87
2016-11-25T05:28:38.703Z,1015.89
2016-11-25T05:29:17.525Z,1015.85
2016-11-25T05:29:56.307Z,1015.87
2016-11-25T05:30:35.093Z,1015.85
2016-11-25T05:31:13.890Z,1015.9
2016-11-25T05:31:52.707Z,1015.93
2016-11-25T05:32:31.491Z,1015.95
2016-11-25T05:33:10.307Z,1015.94
2016-11-25T05:33:49.097Z,1015.88
2016-11-25T05:34:27.879Z,1015.89
2016-11-25T05:35:06.666Z,1015.87
2016-11-25T05:35:45.459Z,1015.83
2016-11-25T05:36:24.280Z,1015.84
2016-11-25T05:37:03.072Z,1015.85
2016-11-25T05:37:41.854Z,1015.83
2016-11-25T05:38:20.673Z,1015.82
2016-11-25T05:38:59.459Z,1015.78
2016-11-25T05:39:38.249Z,1015.81
2016-11-25T05:40:17.035Z,1015.74
2016-11-25T05:40:55.825Z,1015.75
2016-11-25T05:41:34.615Z,1015.78
2016-11-25T05:42:13.401Z,1015.77
2016-11-25T05:42:52.193Z,1015.8
2016-11-25T05:43:30.979Z,1015.78
2016-11-25T05:44:09.769Z,1015.79
2016-11-25T05:44:48.557Z,1015.77
2016-11-25T05:45:27.345Z,1015.77
2016-11-25T05:46:06.124Z,1015.78
2016-11-25T05:46:44.914Z,1015.81
2016-11-25T05:47:23.705Z,1015.77
2016-11-25T05:48:02.494Z,1015.81
2016-11-25T05:48:41.276Z,1015.78
2016-11-25T05:49:20.063Z,1015.78
2016-11-25T05:49:58.852Z,1015.78
2016-11-25T05:50:37.640Z,1015.79
2016-11-25T05:51:16.427Z,1015.77
2016-11-25T05:51:55.215Z,1015.78
2016-11-25T05:52:34.000Z,1015.77
2016-11-25T05:53:12.781Z,1015.8
2016-11-25T05:53:51.568Z,1015.75
2016-11-25T05:54:30.358Z,1015.76
2016-11-25T05:55:09.144Z,1015.77
2016-11-25T05:55:47.928Z,1015.79
2016-11-25T05:56:26.717Z,1015.72
2016-11-25T05:57:05.504Z,1015.71
2016-11-25T05:57:44.292Z,1015.75
2016-11-25T05:58:23.077Z,1015.69
2016-11-25T05:59:01.868Z,1015.74
2016-11-25T05:59:40.999Z,1015.7
2016-11-25T06:00:19.786Z,1015.7
2016-11-25T06:00:58.576Z,1015.72
2016-11-25T06:01:37.366Z,1015.71
2016-11-25T06:02:16.159Z,1015.72
2016-11-25T06:02:54.974Z,1015.74
2016-11-25T06:03:33.759Z,1015.73
2016-11-25T06:04:12.550Z,1015.72
2016-11-25T06:04:51.336Z,1015.74
2016-11-25T06:05:30.129Z,1015.69
2016-11-25T06:06:08.921Z,1015.68
2016-11-25T06:06:47.713Z,1015.69
2016-11-25T06:07:26.501Z,1015.71
2016-11-25T06:08:05.290Z,1015.68
2016-11-25T06:08:44.078Z,1015.72
2016-11-25T06:09:23.228Z,1015.67
2016-11-25T06:10:02.013Z,1015.75
2016-11-25T06:10:40.801Z,1015.75
2016-11-25T06:11:19.934Z,1015.77
2016-11-25T06:11:58.721Z,1015.77
2016-11-25T06:12:37.505Z,1015.78
2016-11-25T06:13:16.294Z,1015.77
2016-11-25T06:13:55.079Z,1015.75
2016-11-25T06:14:33.864Z,1015.77
2016-11-25T06:15:12.649Z,1015.77
2016-11-25T06:15:51.435Z,1015.76
2016-11-25T06:16:30.223Z,1015.73
2016-11-25T06:17:09.011Z,1015.75
2016-11-25T06:17:47.797Z,1015.8
2016-11-25T06:18:26.612Z,1015.75
2016-11-25T06:19:05.395Z,1015.75
2016-11-25T06:19:44.178Z,1015.76
2016-11-25T06:20:22.964Z,1015.7
2016-11-25T06:21:01.753Z,1015.76
2016-11-25T06:21:40.535Z,1015.72
2016-11-25T06:22:19.321Z,1015.7
2016-11-25T06:22:58.105Z,1015.66
2016-11-25T06:23:36.892Z,1015.64
2016-11-25T06:24:15.676Z,1015.66
2016-11-25T06:24:54.468Z,1015.63
2016-11-25T06:25:33.253Z,1015.61
2016-11-25T06:26:12.035Z,1015.64
2016-11-25T06:26:50.820Z,1015.63
2016-11-25T06:27:29.605Z,1015.64
2016-11-25T06:28:08.391Z,1015.68
2016-11-25T06:28:47.183Z,1015.68
2016-11-25T06:29:25.967Z,1015.64
2016-11-25T06:30:04.753Z,1015.65
2016-11-25T06:30:43.543Z,1015.68
2016-11-25T06:31:22.334Z,1015.65
2016-11-25T06:32:01.127Z,1015.71
2016-11-25T06:32:39.913Z,1015.66
2016-11-25T06:33:18.698Z,1015.67
2016-11-25T06:33:57.487Z,1015.65
2016-11-25T06:34:36.269Z,1015.71
2016-11-25T06:35:15.062Z,1015.73
2016-11-25T06:35:53.853Z,1015.74
2016-11-25T06:36:32.635Z,1015.79
2016-11-25T06:37:11.421Z,1015.78
2016-11-25T06:37:50.203Z,1015.75
2016-11-25T06:38:29.021Z,1015.72
2016-11-25T06:39:07.807Z,1015.75
2016-11-25T06:39:46.594Z,1015.7
2016-11-25T06:40:25.417Z,1015.71
2016-11-25T06:41:04.219Z,1015.77
2016-11-25T06:41:43.003Z,1015.76
2016-11-25T06:42:21.798Z,1015.75
2016-11-25T06:43:00.597Z,1015.75
2016-11-25T06:43:39.767Z,1015.73
2016-11-25T06:44:18.552Z,1015.78
2016-11-25T06:44:57.338Z,1015.74
2016-11-25T06:45:36.124Z,1015.78
2016-11-25T06:46:14.910Z,1015.78
2016-11-25T06:46:54.048Z,1015.82
2016-11-25T06:47:32.847Z,1015.8
2016-11-25T06:48:11.633Z,1015.8
2016-11-25T06:48:50.418Z,1015.8
2016-11-25T06:49:29.201Z,1015.79
2016-11-25T06:50:07.988Z,1015.76
2016-11-25T06:50:46.773Z,1015.81
2016-11-25T06:51:25.561Z,1015.82
2016-11-25T06:52:04.341Z,1015.82
2016-11-25T06:52:43.129Z,1015.8
2016-11-25T06:53:21.916Z,1015.81
2016-11-25T06:54:00.743Z,1015.84
2016-11-25T06:54:39.530Z,1015.87
2016-11-25T06:55:18.334Z,1015.88
2016-11-25T06:55:57.130Z,1015.9
2016-11-25T06:56:35.910Z,1015.92
2016-11-25T06:57:14.741Z,1015.93
2016-11-25T06:57:53.525Z,1015.95
2016-11-25T06:58:32.310Z,1015.93
2016-11-25T06:59:11.099Z,1015.91
2016-11-25T06:59:49.887Z,1015.95
2016-11-25T07:00:28.670Z,1015.95
2016-11-25T07:01:07.453Z,1015.99
2016-11-25T07:01:46.326Z,1015.97
2016-11-25T07:02:25.112Z,1015.96
2016-11-25T07:03:03.893Z,1015.98
2016-11-25T07:03:42.680Z,1015.93
2016-11-25T07:04:21.463Z,1015.91
2016-11-25T07:05:00.256Z,1015.91
2016-11-25T07:05:39.041Z,1015.94
2016-11-25T07:06:17.826Z,1015.94
2016-11-25T07:06:56.613Z,1015.92
2016-11-25T07:07:35.395Z,1015.93
2016-11-25T07:08:14.188Z,1015.93
2016-11-25T07:08:52.975Z,1015.93
2016-11-25T07:09:31.760Z,1015.93
2016-11-25T07:10:10.551Z,1015.91
2016-11-25T07:10:49.345Z,1015.91
2016-11-25T07:11:28.131Z,1015.86
2016-11-25T07:12:06.919Z,1015.85
2016-11-25T07:12:45.706Z,1015.94
2016-11-25T07:13:24.487Z,1015.91
2016-11-25T07:14:03.275Z,1015.87
2016-11-25T07:14:42.059Z,1015.92
2016-11-25T07:15:20.848Z,1015.93
2016-11-25T07:15:59.636Z,1015.93
2016-11-25T07:16:38.428Z,1015.88
2016-11-25T07:17:17.219Z,1015.88
2016-11-25T07:17:56.004Z,1015.9
2016-11-25T07:18:34.798Z,1015.86
2016-11-25T07:19:13.586Z,1015.85
2016-11-25T07:19:52.371Z,1015.85
2016-11-25T07:20:31.159Z,1015.83
2016-11-25T07:21:18.204Z,1015.81
2016-11-25T07:21:56.989Z,1015.85
2016-11-25T07:22:35.779Z,1015.85
2016-11-25T07:23:14.602Z,1015.86
2016-11-25T07:23:53.419Z,1015.85
2016-11-25T07:24:32.212Z,1015.82
2016-11-25T07:25:11.017Z,1015.89
2016-11-25T07:25:49.803Z,1015.87
2016-11-25T07:26:28.616Z,1015.9
2016-11-25T07:27:07.401Z,1015.9
2016-11-25T07:27:46.193Z,1015.88
2016-11-25T07:28:24.979Z,1015.88
2016-11-25T07:29:03.771Z,1015.89
2016-11-25T07:29:42.562Z,1015.86
2016-11-25T07:30:21.349Z,1015.85
2016-11-25T07:31:00.132Z,1015.89
2016-11-25T07:31:38.922Z,1015.83
2016-11-25T07:32:17.708Z,1015.85
2016-11-25T07:32:56.522Z,1015.84
2016-11-25T07:33:35.308Z,1015.89
2016-11-25T07:34:14.104Z,1015.88
2016-11-25T07:34:52.893Z,1015.88
2016-11-25T07:35:31.681Z,1015.89
2016-11-25T07:36:10.469Z,1015.9
2016-11-25T07:36:49.259Z,1015.88
2016-11-25T07:37:28.055Z,1015.85
2016-11-25T07:38:06.844Z,1015.92
2016-11-25T07:38:45.634Z,1015.92
2016-11-25T07:39:24.419Z,1015.92
2016-11-25T07:40:03.215Z,1015.97
2016-11-25T07:40:42.003Z,1015.98
2016-11-25T07:41:20.789Z,1016
2016-11-25T07:41:59.579Z,1016.02
2016-11-25T07:42:38.373Z,1016
2016-11-25T07:43:17.166Z,1015.98
2016-11-25T07:43:55.954Z,1015.94
2016-11-25T07:44:34.756Z,1015.99
2016-11-25T07:45:13.576Z,1015.96
2016-11-25T07:45:52.403Z,1015.89
2016-11-25T07:46:31.242Z,1015.91
2016-11-25T07:47:10.025Z,1015.89
2016-11-25T07:47:48.805Z,1015.91
2016-11-25T07:48:27.627Z,1015.83
2016-11-25T07:49:06.416Z,1015.84
2016-11-25T07:49:45.205Z,1015.86
2016-11-25T07:50:23.991Z,1015.9
2016-11-25T07:51:02.777Z,1015.92